createdAt,value
2022-10-07T00:02:40.923Z,18.20
2022-10-07T00:12:44.639Z,18.30
2022-10-07T00:22:49.725Z,18.20
2022-10-07T00:32:53.488Z,18.10
2022-10-07T00:42:59.418Z,18.10
2022-10-07T00:53:04.567Z,17.90
2022-10-07T01:03:09.696Z,18.10
2022-10-07T01:13:19.351Z,18.00
2022-10-07T01:23:45.704Z,17.90
2022-10-07T01:33:54.165Z,18.00
2022-10-07T01:44:00.807Z,18.30
2022-10-07T01:54:18.651Z,18.40
2022-10-07T02:04:39.070Z,18.40
2022-10-07T02:14:51.012Z,18.60
2022-10-07T02:24:59.297Z,18.90
2022-10-07T02:35:09.146Z,19.40
2022-10-07T02:45:21.168Z,19.90
2022-10-07T02:55:29.312Z,20.00
2022-10-07T03:05:35.558Z,20.00
2022-10-07T03:15:42.572Z,20.20
2022-10-07T03:25:51.154Z,20.30
2022-10-07T03:35:56.233Z,19.80
2022-10-07T03:46:00.826Z,19.40
2022-10-07T03:56:06.056Z,19.00
2022-10-07T04:06:10.547Z,19.00
2022-10-07T04:16:16.084Z,18.90
2022-10-07T04:26:19.837Z,18.70
2022-10-07T04:36:25.177Z,18.60
2022-10-07T04:46:28.902Z,18.50
2022-10-07T04:56:33.987Z,18.50
2022-10-07T05:06:37.858Z,18.70
2022-10-07T05:16:43.839Z,18.70
2022-10-07T05:26:47.465Z,18.80
2022-10-07T05:36:52.610Z,18.40
2022-10-07T05:46:56.304Z,18.50
2022-10-07T05:57:01.612Z,18.70
2022-10-07T06:07:05.678Z,18.50
2022-10-07T06:17:11.237Z,18.30
2022-10-07T06:27:15.052Z,18.00
2022-10-07T06:37:20.966Z,18.20
2022-10-07T06:47:24.576Z,18.20
2022-10-07T06:57:46.220Z,18.20
2022-10-07T07:07:50.491Z,18.00
2022-10-07T07:17:55.949Z,18.10
2022-10-07T07:28:02.089Z,18.00
2022-10-07T07:38:07.156Z,17.90
2022-10-07T07:48:10.818Z,18.00
2022-10-07T07:58:15.849Z,18.10
2022-10-07T08:08:19.387Z,18.10
2022-10-07T08:18:24.505Z,18.10
2022-10-07T08:28:29.240Z,18.30
2022-10-07T08:38:35.603Z,18.40
2022-10-07T08:48:40.575Z,18.40
2022-10-07T08:58:54.874Z,18.30
2022-10-07T09:09:03.976Z,18.20
2022-10-07T09:19:17.305Z,18.50
2022-10-07T09:29:23.570Z,18.60
2022-10-07T09:39:28.771Z,18.60
2022-10-07T09:49:42.684Z,18.60
2022-10-07T09:59:47.941Z,18.70
2022-10-07T10:09:53.186Z,18.80
2022-10-07T10:20:28.439Z,18.70
2022-10-07T10:30:32.907Z,18.70
2022-10-07T10:40:42.037Z,18.80
2022-10-07T10:50:53.959Z,19.00
2022-10-07T11:01:05.947Z,19.00
2022-10-07T11:11:13.144Z,19.20
2022-10-07T11:21:22.161Z,19.10
2022-10-07T11:31:32.568Z,19.00
2022-10-07T11:41:47.049Z,19.20
2022-10-07T11:51:57.825Z,19.40
2022-10-07T12:02:03.769Z,19.80
2022-10-07T12:12:14.438Z,19.80
2022-10-07T12:22:20.046Z,19.80
2022-10-07T12:33:04.593Z,20.30
2022-10-07T12:43:23.821Z,20.90
2022-10-07T12:53:30.632Z,21.20
2022-10-07T13:04:07.099Z,20.80
2022-10-07T13:14:17.208Z,20.70
2022-10-07T13:24:25.395Z,21.00
2022-10-07T13:34:31.511Z,21.60
2022-10-07T13:44:38.245Z,22.20
2022-10-07T13:54:41.880Z,22.30
2022-10-07T14:04:59.883Z,22.90
2022-10-07T14:15:06.565Z,24.00
2022-10-07T14:25:20.817Z,23.20
2022-10-07T14:35:24.667Z,22.20
2022-10-07T14:45:30.368Z,21.80
2022-10-07T14:55:34.185Z,21.90
2022-10-07T15:05:40.880Z,22.20
2022-10-07T15:15:46.175Z,23.20
2022-10-07T15:25:52.715Z,24.00
2022-10-07T15:35:56.688Z,24.00
2022-10-07T15:46:02.065Z,24.50
2022-10-07T15:56:07.462Z,23.60
2022-10-07T16:06:16.172Z,23.40
2022-10-07T16:16:23.415Z,23.20
2022-10-07T16:26:30.507Z,22.60
2022-10-07T16:36:36.184Z,22.30
2022-10-07T16:46:41.785Z,22.40
2022-10-07T16:56:48.179Z,22.30
2022-10-07T17:06:53.608Z,22.10
2022-10-07T17:16:58.717Z,21.90
2022-10-07T17:27:04.459Z,21.70
2022-10-07T17:37:08.343Z,21.60
2022-10-07T17:47:14.085Z,21.50
2022-10-07T17:57:17.723Z,21.50
2022-10-07T18:07:23.266Z,21.30
2022-10-07T18:17:27.544Z,21.10
2022-10-07T18:27:32.833Z,21.20
2022-10-07T18:37:36.435Z,21.30
2022-10-07T18:47:41.743Z,21.20
2022-10-07T18:57:45.631Z,21.40
2022-10-07T19:07:50.870Z,21.50
2022-10-07T19:17:54.656Z,21.60
2022-10-07T19:27:59.861Z,21.30
2022-10-07T19:38:04.364Z,21.20
2022-10-07T19:48:14.445Z,21.20
2022-10-07T19:58:18.341Z,20.80
2022-10-07T20:08:23.415Z,20.70
2022-10-07T20:18:27.022Z,20.60
2022-10-07T20:28:32.483Z,20.50
2022-10-07T20:38:50.726Z,20.60
2022-10-07T20:48:55.836Z,20.80
2022-10-07T20:58:59.577Z,21.00
2022-10-07T21:09:05.228Z,20.80
2022-10-07T21:19:09.000Z,20.70
2022-10-07T21:29:14.866Z,20.50
2022-10-07T21:39:18.471Z,20.50
2022-10-07T21:49:23.586Z,20.50
2022-10-07T21:59:27.129Z,21.00
2022-10-07T22:09:32.683Z,20.70
2022-10-07T22:19:36.294Z,20.30
2022-10-07T22:29:41.273Z,19.70
2022-10-07T22:39:44.951Z,19.40
2022-10-07T22:49:50.329Z,19.30
2022-10-07T22:59:54.038Z,19.10
2022-10-07T23:09:59.202Z,19.00
2022-10-07T23:20:04.011Z,19.20
2022-10-07T23:30:10.909Z,19.20
2022-10-07T23:40:14.874Z,19.20
2022-10-07T23:50:20.889Z,18.90
